sensor_id;sensor_type;location;lat;lon;timestamp;temperature;humidity
72936;DHT22;61085;48.804;9.228;2022-11-20T00:01:22;6.20;99.90
72936;DHT22;61085;48.804;9.228;2022-11-20T00:03:48;6.10;99.90
72936;DHT22;61085;48.804;9.228;2022-11-20T00:06:16;6.20;99.90
72936;DHT22;61085;48.804;9.228;2022-11-20T00:08:43;6.20;99.90
72936;DHT22;61085;48.804;9.228;2022-11-20T00:11:11;6.30;99.90
72936;DHT22;61085;48.804;9.228;2022-11-20T00:13:37;6.30;99.90
72936;DHT22;61085;48.804;9.228;2022-11-20T00:16:05;6.20;99.90
72936;DHT22;61085;48.804;9.228;2022-11-20T00:18:32;6.30;99.90
72936;DHT22;61085;48.804;9.228;2022-11-20T00:21:06;6.30;99.90
72936;DHT22;61085;48.804;9.228;2022-11-20T00:23:32;6.30;99.90
72936;DHT22;61085;48.804;9.228;2022-11-20T00:26:06;6.40;99.90
72936;DHT22;61085;48.804;9.228;2022-11-20T00:28:32;6.50;99.90
72936;DHT22;61085;48.804;9.228;2022-11-20T00:31:11;6.50;99.90
72936;DHT22;61085;48.804;9.228;2022-11-20T00:33:38;6.50;99.90
72936;DHT22;61085;48.804;9.228;2022-11-20T00:36:06;6.60;99.90
72936;DHT22;61085;48.804;9.228;2022-11-20T00:38:32;6.50;99.90
72936;DHT22;61085;48.804;9.228;2022-11-20T00:41:00;6.60;99.90
72936;DHT22;61085;48.804;9.228;2022-11-20T00:43:26;6.60;99.90
72936;DHT22;61085;48.804;9.228;2022-11-20T00:46:07;6.60;99.90
72936;DHT22;61085;48.804;9.228;2022-11-20T00:48:32;6.70;99.90
72936;DHT22;61085;48.804;9.228;2022-11-20T00:50:58;6.70;99.90
72936;DHT22;61085;48.804;9.228;2022-11-20T00:53:24;6.70;99.90
72936;DHT22;61085;48.804;9.228;2022-11-20T00:55:58;6.70;99.90
72936;DHT22;61085;48.804;9.228;2022-11-20T00:58:28;6.70;99.90
72936;DHT22;61085;48.804;9.228;2022-11-20T01:01:07;6.70;99.90
72936;DHT22;61085;48.804;9.228;2022-11-20T01:03:34;6.70;99.90
72936;DHT22;61085;48.804;9.228;2022-11-20T01:06:01;6.60;99.90
72936;DHT22;61085;48.804;9.228;2022-11-20T01:08:30;6.50;99.90
72936;DHT22;61085;48.804;9.228;2022-11-20T01:11:04;6.50;99.90
72936;DHT22;61085;48.804;9.228;2022-11-20T01:13:30;6.50;99.90
72936;DHT22;61085;48.804;9.228;2022-11-20T01:18:47;6.40;99.90
72936;DHT22;61085;48.804;9.228;2022-11-20T01:21:18;6.30;99.90
72936;DHT22;61085;48.804;9.228;2022-11-20T01:23:45;6.40;99.90
72936;DHT22;61085;48.804;9.228;2022-11-20T01:26:13;6.30;99.90
72936;DHT22;61085;48.804;9.228;2022-11-20T01:28:40;6.40;99.90
72936;DHT22;61085;48.804;9.228;2022-11-20T01:33:41;6.60;99.90
72936;DHT22;61085;48.804;9.228;2022-11-20T01:36:07;6.50;99.90
72936;DHT22;61085;48.804;9.228;2022-11-20T01:38:34;6.60;99.90
72936;DHT22;61085;48.804;9.228;2022-11-20T01:40:59;6.60;99.90
72936;DHT22;61085;48.804;9.228;2022-11-20T01:43:25;6.60;99.90
72936;DHT22;61085;48.804;9.228;2022-11-20T01:48:51;6.70;99.90
72936;DHT22;61085;48.804;9.228;2022-11-20T01:51:42;6.70;99.90
72936;DHT22;61085;48.804;9.228;2022-11-20T01:54:14;6.70;99.90
72936;DHT22;61085;48.804;9.228;2022-11-20T01:56:44;6.80;99.90
72936;DHT22;61085;48.804;9.228;2022-11-20T01:59:13;6.80;99.90
72936;DHT22;61085;48.804;9.228;2022-11-20T02:01:40;6.80;99.90
72936;DHT22;61085;48.804;9.228;2022-11-20T02:04:07;6.80;99.90
72936;DHT22;61085;48.804;9.228;2022-11-20T02:06:42;6.80;99.90
72936;DHT22;61085;48.804;9.228;2022-11-20T02:09:09;6.90;99.90
72936;DHT22;61085;48.804;9.228;2022-11-20T02:11:35;6.80;99.90
72936;DHT22;61085;48.804;9.228;2022-11-20T02:14:01;6.80;99.90
72936;DHT22;61085;48.804;9.228;2022-11-20T02:16:33;6.90;99.90
72936;DHT22;61085;48.804;9.228;2022-11-20T02:19:02;6.90;99.90
72936;DHT22;61085;48.804;9.228;2022-11-20T02:24:29;6.90;99.90
72936;DHT22;61085;48.804;9.228;2022-11-20T02:27:12;7.00;99.90
72936;DHT22;61085;48.804;9.228;2022-11-20T02:29:43;7.00;99.90
72936;DHT22;61085;48.804;9.228;2022-11-20T02:32:27;7.00;99.90
72936;DHT22;61085;48.804;9.228;2022-11-20T02:34:53;7.00;99.90
72936;DHT22;61085;48.804;9.228;2022-11-20T02:37:20;7.00;99.90
72936;DHT22;61085;48.804;9.228;2022-11-20T02:39:47;7.10;99.90
72936;DHT22;61085;48.804;9.228;2022-11-20T02:42:14;7.20;99.90
72936;DHT22;61085;48.804;9.228;2022-11-20T02:44:40;7.10;99.90
72936;DHT22;61085;48.804;9.228;2022-11-20T02:47:06;7.20;99.90
72936;DHT22;61085;48.804;9.228;2022-11-20T02:49:31;7.10;99.90
72936;DHT22;61085;48.804;9.228;2022-11-20T02:51:57;7.30;99.90
72936;DHT22;61085;48.804;9.228;2022-11-20T02:54:23;7.30;99.90
72936;DHT22;61085;48.804;9.228;2022-11-20T02:56:49;7.20;99.90
72936;DHT22;61085;48.804;9.228;2022-11-20T02:59:14;7.10;99.90
72936;DHT22;61085;48.804;9.228;2022-11-20T03:01:40;7.20;99.90
72936;DHT22;61085;48.804;9.228;2022-11-20T03:04:06;7.20;99.90
72936;DHT22;61085;48.804;9.228;2022-11-20T03:06:31;7.30;99.90
72936;DHT22;61085;48.804;9.228;2022-11-20T03:08:57;7.30;99.90
72936;DHT22;61085;48.804;9.228;2022-11-20T03:11:23;7.20;99.90
72936;DHT22;61085;48.804;9.228;2022-11-20T03:13:48;7.20;99.90
72936;DHT22;61085;48.804;9.228;2022-11-20T03:16:19;7.40;99.90
72936;DHT22;61085;48.804;9.228;2022-11-20T03:18:45;7.40;99.90
72936;DHT22;61085;48.804;9.228;2022-11-20T03:21:12;7.50;99.90
72936;DHT22;61085;48.804;9.228;2022-11-20T03:23:38;7.40;99.90
72936;DHT22;61085;48.804;9.228;2022-11-20T03:26:08;7.50;99.90
72936;DHT22;61085;48.804;9.228;2022-11-20T03:28:34;7.50;99.90
72936;DHT22;61085;48.804;9.228;2022-11-20T03:31:11;7.50;99.90
72936;DHT22;61085;48.804;9.228;2022-11-20T03:33:38;7.60;99.90
72936;DHT22;61085;48.804;9.228;2022-11-20T03:36:06;7.50;99.90
72936;DHT22;61085;48.804;9.228;2022-11-20T03:38:32;7.40;99.90
72936;DHT22;61085;48.804;9.228;2022-11-20T03:41:03;7.50;99.90
72936;DHT22;61085;48.804;9.228;2022-11-20T03:43:29;7.50;99.90
72936;DHT22;61085;48.804;9.228;2022-11-20T03:45:54;7.40;99.90
72936;DHT22;61085;48.804;9.228;2022-11-20T03:48:20;7.40;99.90
72936;DHT22;61085;48.804;9.228;2022-11-20T03:50:46;7.40;99.90
72936;DHT22;61085;48.804;9.228;2022-11-20T03:53:13;7.60;99.90
72936;DHT22;61085;48.804;9.228;2022-11-20T03:55:39;7.40;99.90
72936;DHT22;61085;48.804;9.228;2022-11-20T03:58:05;7.30;99.90
72936;DHT22;61085;48.804;9.228;2022-11-20T04:00:30;7.40;99.90
72936;DHT22;61085;48.804;9.228;2022-11-20T04:03:00;7.40;99.90
72936;DHT22;61085;48.804;9.228;2022-11-20T04:05:26;7.40;99.90
72936;DHT22;61085;48.804;9.228;2022-11-20T04:07:52;7.50;99.90
72936;DHT22;61085;48.804;9.228;2022-11-20T04:10:17;7.50;99.90
72936;DHT22;61085;48.804;9.228;2022-11-20T04:12:43;7.40;99.90
72936;DHT22;61085;48.804;9.228;2022-11-20T04:15:09;7.40;99.90
72936;DHT22;61085;48.804;9.228;2022-11-20T04:17:35;7.30;99.90
72936;DHT22;61085;48.804;9.228;2022-11-20T04:20:01;7.30;99.90
72936;DHT22;61085;48.804;9.228;2022-11-20T04:22:26;7.30;99.90
72936;DHT22;61085;48.804;9.228;2022-11-20T04:24:52;7.30;99.90
72936;DHT22;61085;48.804;9.228;2022-11-20T04:27:18;7.30;99.90
72936;DHT22;61085;48.804;9.228;2022-11-20T04:29:43;7.40;99.90
72936;DHT22;61085;48.804;9.228;2022-11-20T04:32:09;7.40;99.90
72936;DHT22;61085;48.804;9.228;2022-11-20T04:34:35;7.40;99.90
72936;DHT22;61085;48.804;9.228;2022-11-20T04:37:01;7.30;99.90
72936;DHT22;61085;48.804;9.228;2022-11-20T04:39:26;7.40;99.90
72936;DHT22;61085;48.804;9.228;2022-11-20T04:41:52;7.30;99.90
72936;DHT22;61085;48.804;9.228;2022-11-20T04:44:38;7.40;99.90
72936;DHT22;61085;48.804;9.228;2022-11-20T04:47:03;7.30;99.90
72936;DHT22;61085;48.804;9.228;2022-11-20T04:49:29;7.40;99.90
72936;DHT22;61085;48.804;9.228;2022-11-20T04:51:55;7.30;99.90
72936;DHT22;61085;48.804;9.228;2022-11-20T04:54:20;7.30;99.90
72936;DHT22;61085;48.804;9.228;2022-11-20T04:56:49;7.30;99.90
72936;DHT22;61085;48.804;9.228;2022-11-20T04:59:15;7.30;99.90
72936;DHT22;61085;48.804;9.228;2022-11-20T05:01:41;7.30;99.90
72936;DHT22;61085;48.804;9.228;2022-11-20T05:04:07;7.40;99.90
72936;DHT22;61085;48.804;9.228;2022-11-20T05:06:32;7.30;99.90
72936;DHT22;61085;48.804;9.228;2022-11-20T05:08:58;7.40;99.90
72936;DHT22;61085;48.804;9.228;2022-11-20T05:11:24;7.30;99.90
72936;DHT22;61085;48.804;9.228;2022-11-20T05:13:51;7.30;99.90
72936;DHT22;61085;48.804;9.228;2022-11-20T05:16:23;7.30;99.90
72936;DHT22;61085;48.804;9.228;2022-11-20T05:18:53;7.20;99.90
72936;DHT22;61085;48.804;9.228;2022-11-20T05:21:20;7.30;99.90
72936;DHT22;61085;48.804;9.228;2022-11-20T05:23:46;7.30;99.90
72936;DHT22;61085;48.804;9.228;2022-11-20T05:26:17;7.40;99.90
72936;DHT22;61085;48.804;9.228;2022-11-20T05:28:44;7.30;99.90
72936;DHT22;61085;48.804;9.228;2022-11-20T05:31:12;7.30;99.90
72936;DHT22;61085;48.804;9.228;2022-11-20T05:33:40;7.40;99.90
72936;DHT22;61085;48.804;9.228;2022-11-20T05:36:06;7.30;99.90
72936;DHT22;61085;48.804;9.228;2022-11-20T05:38:32;7.40;99.90
72936;DHT22;61085;48.804;9.228;2022-11-20T05:41:16;7.30;99.90
72936;DHT22;61085;48.804;9.228;2022-11-20T05:43:43;7.30;99.90
72936;DHT22;61085;48.804;9.228;2022-11-20T05:46:12;7.30;99.90
72936;DHT22;61085;48.804;9.228;2022-11-20T05:48:39;7.40;99.90
72936;DHT22;61085;48.804;9.228;2022-11-20T05:51:07;7.40;99.90
72936;DHT22;61085;48.804;9.228;2022-11-20T05:53:34;7.40;99.90
72936;DHT22;61085;48.804;9.228;2022-11-20T05:56:08;7.40;99.90
72936;DHT22;61085;48.804;9.228;2022-11-20T05:58:35;7.40;99.90
72936;DHT22;61085;48.804;9.228;2022-11-20T06:03:36;7.40;99.90
72936;DHT22;61085;48.804;9.228;2022-11-20T06:06:03;7.50;99.90
72936;DHT22;61085;48.804;9.228;2022-11-20T06:08:29;7.50;99.90
72936;DHT22;61085;48.804;9.228;2022-11-20T06:10:55;7.60;99.90
72936;DHT22;61085;48.804;9.228;2022-11-20T06:13:21;7.60;99.90
72936;DHT22;61085;48.804;9.228;2022-11-20T06:15:51;7.60;99.90
72936;DHT22;61085;48.804;9.228;2022-11-20T06:18:18;7.70;99.90
72936;DHT22;61085;48.804;9.228;2022-11-20T06:20:43;7.60;99.90
72936;DHT22;61085;48.804;9.228;2022-11-20T06:23:09;7.60;99.90
72936;DHT22;61085;48.804;9.228;2022-11-20T06:25:39;7.60;99.90
72936;DHT22;61085;48.804;9.228;2022-11-20T06:28:05;7.60;99.90
72936;DHT22;61085;48.804;9.228;2022-11-20T06:30:31;7.60;99.90
72936;DHT22;61085;48.804;9.228;2022-11-20T06:32:56;7.60;99.90
72936;DHT22;61085;48.804;9.228;2022-11-20T06:35:22;7.60;99.90
72936;DHT22;61085;48.804;9.228;2022-11-20T06:37:48;7.60;99.90
72936;DHT22;61085;48.804;9.228;2022-11-20T06:40:13;7.80;99.90
72936;DHT22;61085;48.804;9.228;2022-11-20T06:42:39;7.60;99.90
72936;DHT22;61085;48.804;9.228;2022-11-20T06:45:05;7.70;99.90
72936;DHT22;61085;48.804;9.228;2022-11-20T06:47:30;7.70;99.90
72936;DHT22;61085;48.804;9.228;2022-11-20T06:49:56;7.70;99.90
72936;DHT22;61085;48.804;9.228;2022-11-20T06:52:22;7.70;99.90
72936;DHT22;61085;48.804;9.228;2022-11-20T06:54:47;7.80;99.90
72936;DHT22;61085;48.804;9.228;2022-11-20T06:57:13;7.90;99.90
72936;DHT22;61085;48.804;9.228;2022-11-20T06:59:38;7.90;99.90
72936;DHT22;61085;48.804;9.228;2022-11-20T07:02:04;7.90;99.90
72936;DHT22;61085;48.804;9.228;2022-11-20T07:04:30;7.90;99.50
72936;DHT22;61085;48.804;9.228;2022-11-20T07:06:55;7.80;99.40
72936;DHT22;61085;48.804;9.228;2022-11-20T07:09:21;7.90;99.20
72936;DHT22;61085;48.804;9.228;2022-11-20T07:11:46;7.80;99.20
72936;DHT22;61085;48.804;9.228;2022-11-20T07:14:12;7.70;99.40
72936;DHT22;61085;48.804;9.228;2022-11-20T07:16:38;7.90;99.60
72936;DHT22;61085;48.804;9.228;2022-11-20T07:19:03;7.70;99.50
72936;DHT22;61085;48.804;9.228;2022-11-20T07:21:29;7.80;99.10
72936;DHT22;61085;48.804;9.228;2022-11-20T07:23:54;7.90;98.70
72936;DHT22;61085;48.804;9.228;2022-11-20T07:26:20;8.10;98.60
72936;DHT22;61085;48.804;9.228;2022-11-20T07:28:46;8.00;98.70
72936;DHT22;61085;48.804;9.228;2022-11-20T07:31:11;7.90;98.80
72936;DHT22;61085;48.804;9.228;2022-11-20T07:33:38;8.00;98.40
72936;DHT22;61085;48.804;9.228;2022-11-20T07:36:04;8.10;98.10
72936;DHT22;61085;48.804;9.228;2022-11-20T07:38:30;8.20;97.70
72936;DHT22;61085;48.804;9.228;2022-11-20T07:40:57;8.30;97.30
72936;DHT22;61085;48.804;9.228;2022-11-20T07:43:29;8.30;97.30
72936;DHT22;61085;48.804;9.228;2022-11-20T07:45:58;8.30;97.20
72936;DHT22;61085;48.804;9.228;2022-11-20T07:48:24;8.40;97.20
72936;DHT22;61085;48.804;9.228;2022-11-20T07:50:54;8.40;97.00
72936;DHT22;61085;48.804;9.228;2022-11-20T07:53:20;8.40;97.90
72936;DHT22;61085;48.804;9.228;2022-11-20T07:55:47;8.40;97.80
72936;DHT22;61085;48.804;9.228;2022-11-20T07:58:13;8.40;97.30
72936;DHT22;61085;48.804;9.228;2022-11-20T08:00:40;8.40;98.00
72936;DHT22;61085;48.804;9.228;2022-11-20T08:03:06;8.40;98.30
72936;DHT22;61085;48.804;9.228;2022-11-20T08:05:31;8.30;98.80
72936;DHT22;61085;48.804;9.228;2022-11-20T08:07:57;8.30;98.90
72936;DHT22;61085;48.804;9.228;2022-11-20T08:10:23;8.40;98.40
72936;DHT22;61085;48.804;9.228;2022-11-20T08:12:52;8.40;98.10
72936;DHT22;61085;48.804;9.228;2022-11-20T08:15:38;8.40;97.60
72936;DHT22;61085;48.804;9.228;2022-11-20T08:18:09;8.30;98.40
72936;DHT22;61085;48.804;9.228;2022-11-20T08:20:38;8.50;97.20
72936;DHT22;61085;48.804;9.228;2022-11-20T08:23:05;8.40;97.50
72936;DHT22;61085;48.804;9.228;2022-11-20T08:25:36;8.40;98.30
72936;DHT22;61085;48.804;9.228;2022-11-20T08:28:05;8.40;98.00
72936;DHT22;61085;48.804;9.228;2022-11-20T08:30:31;8.40;97.80
72936;DHT22;61085;48.804;9.228;2022-11-20T08:33:02;8.50;97.70
72936;DHT22;61085;48.804;9.228;2022-11-20T08:35:28;8.60;97.80
72936;DHT22;61085;48.804;9.228;2022-11-20T08:37:57;8.50;98.30
72936;DHT22;61085;48.804;9.228;2022-11-20T08:40:23;8.60;97.80
72936;DHT22;61085;48.804;9.228;2022-11-20T08:42:49;8.60;98.30
72936;DHT22;61085;48.804;9.228;2022-11-20T08:45:16;8.60;98.40
72936;DHT22;61085;48.804;9.228;2022-11-20T08:47:42;8.70;98.30
72936;DHT22;61085;48.804;9.228;2022-11-20T08:50:10;8.70;98.60
72936;DHT22;61085;48.804;9.228;2022-11-20T08:52:36;8.80;98.10
72936;DHT22;61085;48.804;9.228;2022-11-20T08:55:02;8.80;98.40
72936;DHT22;61085;48.804;9.228;2022-11-20T08:57:28;8.80;98.60
72936;DHT22;61085;48.804;9.228;2022-11-20T08:59:53;8.90;98.10
72936;DHT22;61085;48.804;9.228;2022-11-20T09:02:19;9.00;98.00
72936;DHT22;61085;48.804;9.228;2022-11-20T09:04:44;9.00;97.70
72936;DHT22;61085;48.804;9.228;2022-11-20T09:07:10;9.10;97.00
72936;DHT22;61085;48.804;9.228;2022-11-20T09:09:36;9.20;96.90
72936;DHT22;61085;48.804;9.228;2022-11-20T09:12:01;9.30;96.60
72936;DHT22;61085;48.804;9.228;2022-11-20T09:14:27;9.20;96.00
72936;DHT22;61085;48.804;9.228;2022-11-20T09:16:57;9.10;96.90
72936;DHT22;61085;48.804;9.228;2022-11-20T09:19:24;9.10;96.10
72936;DHT22;61085;48.804;9.228;2022-11-20T09:21:52;9.20;96.20
72936;DHT22;61085;48.804;9.228;2022-11-20T09:24:21;9.20;95.90
72936;DHT22;61085;48.804;9.228;2022-11-20T09:26:48;9.20;95.60
72936;DHT22;61085;48.804;9.228;2022-11-20T09:29:14;9.20;95.90
72936;DHT22;61085;48.804;9.228;2022-11-20T09:31:40;9.20;96.90
72936;DHT22;61085;48.804;9.228;2022-11-20T09:34:05;9.30;96.00
72936;DHT22;61085;48.804;9.228;2022-11-20T09:36:31;9.30;95.90
72936;DHT22;61085;48.804;9.228;2022-11-20T09:38:57;9.20;95.90
72936;DHT22;61085;48.804;9.228;2022-11-20T09:44:43;9.20;96.10
72936;DHT22;61085;48.804;9.228;2022-11-20T09:50:39;9.20;96.60
72936;DHT22;61085;48.804;9.228;2022-11-20T09:56:01;9.10;96.10
72936;DHT22;61085;48.804;9.228;2022-11-20T10:01:20;9.20;96.20
72936;DHT22;61085;48.804;9.228;2022-11-20T10:06:39;9.20;98.90
72936;DHT22;61085;48.804;9.228;2022-11-20T10:22:13;9.10;96.80
72936;DHT22;61085;48.804;9.228;2022-11-20T10:27:49;9.00;97.10
72936;DHT22;61085;48.804;9.228;2022-11-20T10:30:19;9.00;97.90
72936;DHT22;61085;48.804;9.228;2022-11-20T10:33:00;9.10;98.70
72936;DHT22;61085;48.804;9.228;2022-11-20T10:35:35;9.00;99.80
72936;DHT22;61085;48.804;9.228;2022-11-20T10:38:16;9.10;99.90
72936;DHT22;61085;48.804;9.228;2022-11-20T10:40:54;8.90;99.90
72936;DHT22;61085;48.804;9.228;2022-11-20T10:43:41;8.80;99.90
72936;DHT22;61085;48.804;9.228;2022-11-20T10:46:13;8.70;99.90
72936;DHT22;61085;48.804;9.228;2022-11-20T10:48:43;8.80;99.90
72936;DHT22;61085;48.804;9.228;2022-11-20T10:59:14;8.70;99.90
72936;DHT22;61085;48.804;9.228;2022-11-20T11:01:44;8.70;99.90
72936;DHT22;61085;48.804;9.228;2022-11-20T11:07:03;8.60;99.90
72936;DHT22;61085;48.804;9.228;2022-11-20T11:09:34;8.60;99.90
72936;DHT22;61085;48.804;9.228;2022-11-20T11:12:01;8.60;99.90
72936;DHT22;61085;48.804;9.228;2022-11-20T11:14:26;8.60;99.90
72936;DHT22;61085;48.804;9.228;2022-11-20T11:16:57;8.70;99.90
72936;DHT22;61085;48.804;9.228;2022-11-20T11:19:23;8.80;99.90
72936;DHT22;61085;48.804;9.228;2022-11-20T11:21:52;8.80;99.90
72936;DHT22;61085;48.804;9.228;2022-11-20T11:24:27;8.80;99.90
72936;DHT22;61085;48.804;9.228;2022-11-20T11:26:59;8.90;99.90
72936;DHT22;61085;48.804;9.228;2022-11-20T11:29:33;9.10;99.90
72936;DHT22;61085;48.804;9.228;2022-11-20T11:32:06;9.10;99.90
72936;DHT22;61085;48.804;9.228;2022-11-20T11:34:32;9.10;99.90
72936;DHT22;61085;48.804;9.228;2022-11-20T11:36:58;9.30;99.90
72936;DHT22;61085;48.804;9.228;2022-11-20T11:39:26;9.50;99.90
72936;DHT22;61085;48.804;9.228;2022-11-20T11:41:52;9.70;99.90
72936;DHT22;61085;48.804;9.228;2022-11-20T11:47:08;10.10;99.90
72936;DHT22;61085;48.804;9.228;2022-11-20T11:49:35;10.20;99.90
72936;DHT22;61085;48.804;9.228;2022-11-20T11:52:18;10.20;99.90
72936;DHT22;61085;48.804;9.228;2022-11-20T11:55:01;10.30;99.90
72936;DHT22;61085;48.804;9.228;2022-11-20T12:00:21;10.30;99.90
72936;DHT22;61085;48.804;9.228;2022-11-20T12:05:20;10.40;99.90
72936;DHT22;61085;48.804;9.228;2022-11-20T12:10:37;10.70;99.90
72936;DHT22;61085;48.804;9.228;2022-11-20T12:16:00;11.00;98.40
72936;DHT22;61085;48.804;9.228;2022-11-20T12:18:27;11.30;96.50
72936;DHT22;61085;48.804;9.228;2022-11-20T12:32:02;10.70;93.30
72936;DHT22;61085;48.804;9.228;2022-11-20T12:40:06;10.10;92.00
72936;DHT22;61085;48.804;9.228;2022-11-20T12:42:52;10.20;91.90
72936;DHT22;61085;48.804;9.228;2022-11-20T12:45:51;10.20;90.90
72936;DHT22;61085;48.804;9.228;2022-11-20T12:59:40;10.30;90.10
72936;DHT22;61085;48.804;9.228;2022-11-20T13:08:03;10.60;81.70
72936;DHT22;61085;48.804;9.228;2022-11-20T13:18:39;10.70;79.50
72936;DHT22;61085;48.804;9.228;2022-11-20T13:21:18;10.70;79.10
72936;DHT22;61085;48.804;9.228;2022-11-20T13:23:44;10.60;79.00
72936;DHT22;61085;48.804;9.228;2022-11-20T13:26:23;10.50;78.60
72936;DHT22;61085;48.804;9.228;2022-11-20T13:29:09;10.40;81.10
72936;DHT22;61085;48.804;9.228;2022-11-20T13:31:37;10.40;80.70
72936;DHT22;61085;48.804;9.228;2022-11-20T13:34:05;10.40;78.90
72936;DHT22;61085;48.804;9.228;2022-11-20T13:36:32;10.40;77.50
72936;DHT22;61085;48.804;9.228;2022-11-20T13:39:00;10.40;76.30
72936;DHT22;61085;48.804;9.228;2022-11-20T13:41:30;10.40;74.60
72936;DHT22;61085;48.804;9.228;2022-11-20T13:44:30;10.50;74.70
72936;DHT22;61085;48.804;9.228;2022-11-20T13:46:59;10.70;73.60
72936;DHT22;61085;48.804;9.228;2022-11-20T13:49:32;10.50;74.90
72936;DHT22;61085;48.804;9.228;2022-11-20T13:52:21;10.40;74.90
72936;DHT22;61085;48.804;9.228;2022-11-20T13:57:49;10.30;78.20
72936;DHT22;61085;48.804;9.228;2022-11-20T14:00:21;10.30;76.90
72936;DHT22;61085;48.804;9.228;2022-11-20T14:05:39;10.30;77.20
72936;DHT22;61085;48.804;9.228;2022-11-20T14:08:17;10.10;76.60
72936;DHT22;61085;48.804;9.228;2022-11-20T14:10:47;10.10;77.90
72936;DHT22;61085;48.804;9.228;2022-11-20T14:13:18;10.10;79.00
72936;DHT22;61085;48.804;9.228;2022-11-20T14:15:44;10.20;80.30
72936;DHT22;61085;48.804;9.228;2022-11-20T14:18:28;10.20;82.10
72936;DHT22;61085;48.804;9.228;2022-11-20T14:20:54;10.10;82.70
72936;DHT22;61085;48.804;9.228;2022-11-20T14:23:27;10.00;82.80
72936;DHT22;61085;48.804;9.228;2022-11-20T14:25:53;10.00;84.90
72936;DHT22;61085;48.804;9.228;2022-11-20T14:28:26;10.00;84.50
72936;DHT22;61085;48.804;9.228;2022-11-20T14:30:52;9.80;86.30
72936;DHT22;61085;48.804;9.228;2022-11-20T14:33:19;9.60;87.40
72936;DHT22;61085;48.804;9.228;2022-11-20T14:35:53;9.60;88.70
72936;DHT22;61085;48.804;9.228;2022-11-20T14:38:26;9.60;90.00
72936;DHT22;61085;48.804;9.228;2022-11-20T14:40:52;9.60;90.10
72936;DHT22;61085;48.804;9.228;2022-11-20T14:43:21;9.50;90.30
72936;DHT22;61085;48.804;9.228;2022-11-20T14:45:56;9.60;90.70
72936;DHT22;61085;48.804;9.228;2022-11-20T14:48:38;9.50;90.90
72936;DHT22;61085;48.804;9.228;2022-11-20T14:51:04;9.40;91.10
72936;DHT22;61085;48.804;9.228;2022-11-20T14:53:29;9.30;90.90
72936;DHT22;61085;48.804;9.228;2022-11-20T14:55:57;9.40;91.50
72936;DHT22;61085;48.804;9.228;2022-11-20T14:58:28;9.30;91.10
72936;DHT22;61085;48.804;9.228;2022-11-20T15:01:03;9.30;91.70
72936;DHT22;61085;48.804;9.228;2022-11-20T15:03:40;9.30;91.50
72936;DHT22;61085;48.804;9.228;2022-11-20T15:06:09;9.20;90.20
72936;DHT22;61085;48.804;9.228;2022-11-20T15:08:36;8.90;90.50
72936;DHT22;61085;48.804;9.228;2022-11-20T15:11:02;9.10;90.30
72936;DHT22;61085;48.804;9.228;2022-11-20T15:13:37;9.20;90.70
72936;DHT22;61085;48.804;9.228;2022-11-20T15:16:08;9.10;91.00
72936;DHT22;61085;48.804;9.228;2022-11-20T15:18:39;9.00;90.70
72936;DHT22;61085;48.804;9.228;2022-11-20T15:21:14;9.00;90.50
72936;DHT22;61085;48.804;9.228;2022-11-20T15:23:41;9.00;90.40
72936;DHT22;61085;48.804;9.228;2022-11-20T15:26:08;8.80;91.10
72936;DHT22;61085;48.804;9.228;2022-11-20T15:28:40;8.70;91.10
72936;DHT22;61085;48.804;9.228;2022-11-20T15:31:06;8.80;91.20
72936;DHT22;61085;48.804;9.228;2022-11-20T15:33:32;8.70;91.40
72936;DHT22;61085;48.804;9.228;2022-11-20T15:35:58;8.70;91.30
72936;DHT22;61085;48.804;9.228;2022-11-20T15:38:24;8.80;91.30
72936;DHT22;61085;48.804;9.228;2022-11-20T15:40:50;8.70;91.60
72936;DHT22;61085;48.804;9.228;2022-11-20T15:43:16;8.70;91.50
72936;DHT22;61085;48.804;9.228;2022-11-20T15:48:13;8.70;92.20
72936;DHT22;61085;48.804;9.228;2022-11-20T15:53:19;8.50;92.50
72936;DHT22;61085;48.804;9.228;2022-11-20T15:55:44;8.50;92.60
72936;DHT22;61085;48.804;9.228;2022-11-20T15:58:10;8.50;92.70
72936;DHT22;61085;48.804;9.228;2022-11-20T16:00:38;8.40;93.00
72936;DHT22;61085;48.804;9.228;2022-11-20T16:03:04;8.40;93.20
72936;DHT22;61085;48.804;9.228;2022-11-20T16:05:30;8.30;93.50
72936;DHT22;61085;48.804;9.228;2022-11-20T16:07:56;8.30;93.50
72936;DHT22;61085;48.804;9.228;2022-11-20T16:10:22;8.30;93.70
72936;DHT22;61085;48.804;9.228;2022-11-20T16:12:48;8.20;93.90
72936;DHT22;61085;48.804;9.228;2022-11-20T16:15:33;8.20;93.90
72936;DHT22;61085;48.804;9.228;2022-11-20T16:18:13;8.20;94.10
72936;DHT22;61085;48.804;9.228;2022-11-20T16:20:39;8.20;94.10
72936;DHT22;61085;48.804;9.228;2022-11-20T16:23:06;8.20;94.30
72936;DHT22;61085;48.804;9.228;2022-11-20T16:25:32;8.20;94.60
72936;DHT22;61085;48.804;9.228;2022-11-20T16:27:58;8.20;94.40
72936;DHT22;61085;48.804;9.228;2022-11-20T16:30:23;8.20;94.50
72936;DHT22;61085;48.804;9.228;2022-11-20T16:32:49;8.30;94.70
72936;DHT22;61085;48.804;9.228;2022-11-20T16:35:15;8.20;94.90
72936;DHT22;61085;48.804;9.228;2022-11-20T16:37:41;8.20;94.90
72936;DHT22;61085;48.804;9.228;2022-11-20T16:40:09;8.20;95.10
72936;DHT22;61085;48.804;9.228;2022-11-20T16:42:36;8.20;95.20
72936;DHT22;61085;48.804;9.228;2022-11-20T16:45:03;8.20;95.40
72936;DHT22;61085;48.804;9.228;2022-11-20T16:47:35;8.20;95.60
72936;DHT22;61085;48.804;9.228;2022-11-20T16:50:02;8.30;95.40
72936;DHT22;61085;48.804;9.228;2022-11-20T16:52:29;8.20;95.40
72936;DHT22;61085;48.804;9.228;2022-11-20T16:54:55;8.20;95.50
72936;DHT22;61085;48.804;9.228;2022-11-20T16:57:20;8.30;95.30
72936;DHT22;61085;48.804;9.228;2022-11-20T16:59:47;8.30;95.30
72936;DHT22;61085;48.804;9.228;2022-11-20T17:02:12;8.30;95.50
72936;DHT22;61085;48.804;9.228;2022-11-20T17:04:38;8.30;95.40
72936;DHT22;61085;48.804;9.228;2022-11-20T17:07:04;8.30;95.90
72936;DHT22;61085;48.804;9.228;2022-11-20T17:09:29;8.30;96.00
72936;DHT22;61085;48.804;9.228;2022-11-20T17:11:55;8.30;95.90
72936;DHT22;61085;48.804;9.228;2022-11-20T17:14:21;8.30;96.00
72936;DHT22;61085;48.804;9.228;2022-11-20T17:16:46;8.30;95.80
72936;DHT22;61085;48.804;9.228;2022-11-20T17:19:13;8.30;96.10
72936;DHT22;61085;48.804;9.228;2022-11-20T17:21:39;8.30;95.80
72936;DHT22;61085;48.804;9.228;2022-11-20T17:24:08;8.40;95.50
72936;DHT22;61085;48.804;9.228;2022-11-20T17:26:36;8.40;95.60
72936;DHT22;61085;48.804;9.228;2022-11-20T17:29:04;8.40;95.60
72936;DHT22;61085;48.804;9.228;2022-11-20T17:31:32;8.40;95.90
72936;DHT22;61085;48.804;9.228;2022-11-20T17:33:58;8.40;95.60
72936;DHT22;61085;48.804;9.228;2022-11-20T17:36:25;8.30;95.90
72936;DHT22;61085;48.804;9.228;2022-11-20T17:38:51;8.40;95.90
72936;DHT22;61085;48.804;9.228;2022-11-20T17:41:24;8.30;95.90
72936;DHT22;61085;48.804;9.228;2022-11-20T17:43:58;8.40;95.90
72936;DHT22;61085;48.804;9.228;2022-11-20T17:46:27;8.40;95.70
72936;DHT22;61085;48.804;9.228;2022-11-20T17:48:54;8.60;96.40
72936;DHT22;61085;48.804;9.228;2022-11-20T17:51:25;8.50;95.30
72936;DHT22;61085;48.804;9.228;2022-11-20T17:53:53;8.50;95.90
72936;DHT22;61085;48.804;9.228;2022-11-20T17:56:19;8.40;95.70